sensor_id;sensor_type;location;lat;lon;timestamp;temperature;humidity
26503;DHT22;14177;51.520;6.764;2022-12-18T00:03:49;-7.40;99.90
26503;DHT22;14177;51.520;6.764;2022-12-18T00:06:17;-7.40;99.90
26503;DHT22;14177;51.520;6.764;2022-12-18T00:08:45;-7.40;99.90
26503;DHT22;14177;51.520;6.764;2022-12-18T00:11:14;-7.40;99.90
26503;DHT22;14177;51.520;6.764;2022-12-18T00:13:42;-7.40;99.90
26503;DHT22;14177;51.520;6.764;2022-12-18T00:16:11;-7.40;99.90
26503;DHT22;14177;51.520;6.764;2022-12-18T00:18:39;-7.50;99.90
26503;DHT22;14177;51.520;6.764;2022-12-18T00:21:08;-7.50;99.90
26503;DHT22;14177;51.520;6.764;2022-12-18T00:23:37;-7.50;99.90
26503;DHT22;14177;51.520;6.764;2022-12-18T00:26:07;-7.50;99.90
26503;DHT22;14177;51.520;6.764;2022-12-18T00:28:39;-7.50;99.90
26503;DHT22;14177;51.520;6.764;2022-12-18T00:31:08;-7.50;99.90
26503;DHT22;14177;51.520;6.764;2022-12-18T00:33:36;-7.50;99.90
26503;DHT22;14177;51.520;6.764;2022-12-18T00:36:12;-7.60;99.90
26503;DHT22;14177;51.520;6.764;2022-12-18T00:38:40;-7.60;99.90
26503;DHT22;14177;51.520;6.764;2022-12-18T00:41:09;-7.60;99.90
26503;DHT22;14177;51.520;6.764;2022-12-18T00:43:37;-7.60;99.90
26503;DHT22;14177;51.520;6.764;2022-12-18T00:46:05;-7.60;99.90
26503;DHT22;14177;51.520;6.764;2022-12-18T00:48:32;-7.70;99.90
26503;DHT22;14177;51.520;6.764;2022-12-18T00:50:59;-7.70;99.90
26503;DHT22;14177;51.520;6.764;2022-12-18T00:53:26;-7.70;99.90
26503;DHT22;14177;51.520;6.764;2022-12-18T00:55:54;-7.70;99.90
26503;DHT22;14177;51.520;6.764;2022-12-18T00:58:21;-7.70;99.90
26503;DHT22;14177;51.520;6.764;2022-12-18T01:00:48;-7.70;99.90
26503;DHT22;14177;51.520;6.764;2022-12-18T01:03:15;-7.70;99.90
26503;DHT22;14177;51.520;6.764;2022-12-18T01:05:43;-7.70;99.90
26503;DHT22;14177;51.520;6.764;2022-12-18T01:08:10;-7.80;99.90
26503;DHT22;14177;51.520;6.764;2022-12-18T01:10:39;-7.70;99.90
26503;DHT22;14177;51.520;6.764;2022-12-18T01:13:07;-7.80;99.90
26503;DHT22;14177;51.520;6.764;2022-12-18T01:15:34;-7.70;99.90
26503;DHT22;14177;51.520;6.764;2022-12-18T01:18:01;-7.80;99.90
26503;DHT22;14177;51.520;6.764;2022-12-18T01:20:28;-7.70;99.90
26503;DHT22;14177;51.520;6.764;2022-12-18T01:22:55;-7.70;99.90
26503;DHT22;14177;51.520;6.764;2022-12-18T01:25:22;-7.80;99.90
26503;DHT22;14177;51.520;6.764;2022-12-18T01:27:51;-7.80;99.90
26503;DHT22;14177;51.520;6.764;2022-12-18T01:30:18;-7.80;99.90
26503;DHT22;14177;51.520;6.764;2022-12-18T01:32:45;-7.90;99.90
26503;DHT22;14177;51.520;6.764;2022-12-18T01:35:12;-7.90;99.90
26503;DHT22;14177;51.520;6.764;2022-12-18T01:37:39;-7.90;99.90
26503;DHT22;14177;51.520;6.764;2022-12-18T01:40:06;-7.90;99.90
26503;DHT22;14177;51.520;6.764;2022-12-18T01:42:33;-7.90;99.90
26503;DHT22;14177;51.520;6.764;2022-12-18T01:45:02;-7.90;99.90
26503;DHT22;14177;51.520;6.764;2022-12-18T01:47:43;-7.90;99.90
26503;DHT22;14177;51.520;6.764;2022-12-18T01:50:17;-8.00;99.90
26503;DHT22;14177;51.520;6.764;2022-12-18T01:52:58;-8.00;99.90
26503;DHT22;14177;51.520;6.764;2022-12-18T01:55:29;-8.00;99.90
26503;DHT22;14177;51.520;6.764;2022-12-18T01:58:01;-8.00;99.90
26503;DHT22;14177;51.520;6.764;2022-12-18T02:00:28;-8.00;99.90
26503;DHT22;14177;51.520;6.764;2022-12-18T02:02:55;-8.00;99.90
26503;DHT22;14177;51.520;6.764;2022-12-18T02:05:26;-8.00;99.90
26503;DHT22;14177;51.520;6.764;2022-12-18T02:08:08;-8.00;99.90
26503;DHT22;14177;51.520;6.764;2022-12-18T02:16:21;-8.10;99.90
26503;DHT22;14177;51.520;6.764;2022-12-18T02:18:56;-8.10;99.90
26503;DHT22;14177;51.520;6.764;2022-12-18T02:21:28;-8.10;99.90
26503;DHT22;14177;51.520;6.764;2022-12-18T02:24:12;-8.10;99.90
26503;DHT22;14177;51.520;6.764;2022-12-18T02:27:05;-8.10;99.90
26503;DHT22;14177;51.520;6.764;2022-12-18T02:32:06;-8.10;99.90
26503;DHT22;14177;51.520;6.764;2022-12-18T02:34:38;-8.10;99.90
26503;DHT22;14177;51.520;6.764;2022-12-18T02:37:14;-8.10;99.90
26503;DHT22;14177;51.520;6.764;2022-12-18T02:39:43;-8.10;99.90
26503;DHT22;14177;51.520;6.764;2022-12-18T02:42:13;-8.20;99.90
26503;DHT22;14177;51.520;6.764;2022-12-18T02:44:42;-8.20;99.90
26503;DHT22;14177;51.520;6.764;2022-12-18T02:47:12;-8.20;99.90
26503;DHT22;14177;51.520;6.764;2022-12-18T02:58:10;-8.30;99.90
26503;DHT22;14177;51.520;6.764;2022-12-18T03:03:34;-8.20;99.90
26503;DHT22;14177;51.520;6.764;2022-12-18T03:06:10;-8.20;99.90
26503;DHT22;14177;51.520;6.764;2022-12-18T03:08:44;-8.20;99.90
26503;DHT22;14177;51.520;6.764;2022-12-18T03:11:16;-8.30;99.90
26503;DHT22;14177;51.520;6.764;2022-12-18T03:14:04;-8.30;99.90
26503;DHT22;14177;51.520;6.764;2022-12-18T03:16:34;-8.30;99.90
26503;DHT22;14177;51.520;6.764;2022-12-18T03:19:05;-8.30;99.90
26503;DHT22;14177;51.520;6.764;2022-12-18T03:21:38;-8.30;99.90
26503;DHT22;14177;51.520;6.764;2022-12-18T03:24:09;-8.30;99.90
26503;DHT22;14177;51.520;6.764;2022-12-18T03:26:40;-8.30;99.90
26503;DHT22;14177;51.520;6.764;2022-12-18T03:29:18;-8.30;99.90
26503;DHT22;14177;51.520;6.764;2022-12-18T03:31:51;-8.30;99.90
26503;DHT22;14177;51.520;6.764;2022-12-18T03:34:26;-8.30;99.90
26503;DHT22;14177;51.520;6.764;2022-12-18T03:37:00;-8.30;99.90
26503;DHT22;14177;51.520;6.764;2022-12-18T03:39:29;-8.30;99.90
26503;DHT22;14177;51.520;6.764;2022-12-18T03:47:31;-8.40;99.90
26503;DHT22;14177;51.520;6.764;2022-12-18T03:53:04;-8.40;99.90
26503;DHT22;14177;51.520;6.764;2022-12-18T03:55:34;-8.40;99.90
26503;DHT22;14177;51.520;6.764;2022-12-18T03:58:04;-8.40;99.90
26503;DHT22;14177;51.520;6.764;2022-12-18T04:00:52;-8.40;99.90
26503;DHT22;14177;51.520;6.764;2022-12-18T04:03:21;-8.40;99.90
26503;DHT22;14177;51.520;6.764;2022-12-18T04:05:52;-8.40;99.90
26503;DHT22;14177;51.520;6.764;2022-12-18T04:08:22;-8.40;99.90
26503;DHT22;14177;51.520;6.764;2022-12-18T04:10:59;-8.40;99.90
26503;DHT22;14177;51.520;6.764;2022-12-18T04:13:32;-8.50;99.90
26503;DHT22;14177;51.520;6.764;2022-12-18T04:16:04;-8.50;99.90
26503;DHT22;14177;51.520;6.764;2022-12-18T04:18:32;-8.50;99.90
26503;DHT22;14177;51.520;6.764;2022-12-18T04:21:00;-8.50;99.90
26503;DHT22;14177;51.520;6.764;2022-12-18T04:23:35;-8.50;99.90
26503;DHT22;14177;51.520;6.764;2022-12-18T04:26:02;-8.50;99.90
26503;DHT22;14177;51.520;6.764;2022-12-18T04:28:48;-8.50;99.90
26503;DHT22;14177;51.520;6.764;2022-12-18T04:31:15;-8.50;99.90
26503;DHT22;14177;51.520;6.764;2022-12-18T04:33:48;-8.50;99.90
26503;DHT22;14177;51.520;6.764;2022-12-18T04:36:16;-8.50;99.90
26503;DHT22;14177;51.520;6.764;2022-12-18T04:38:44;-8.50;99.90
26503;DHT22;14177;51.520;6.764;2022-12-18T04:41:14;-8.50;99.90
26503;DHT22;14177;51.520;6.764;2022-12-18T04:43:43;-8.50;99.90
26503;DHT22;14177;51.520;6.764;2022-12-18T04:46:10;-8.50;99.90
26503;DHT22;14177;51.520;6.764;2022-12-18T04:48:36;-8.50;99.90
26503;DHT22;14177;51.520;6.764;2022-12-18T04:51:04;-8.50;99.90
26503;DHT22;14177;51.520;6.764;2022-12-18T04:53:32;-8.50;99.90
26503;DHT22;14177;51.520;6.764;2022-12-18T04:56:03;-8.50;99.90
26503;DHT22;14177;51.520;6.764;2022-12-18T04:58:30;-8.50;99.90
26503;DHT22;14177;51.520;6.764;2022-12-18T05:00:57;-8.50;99.90
26503;DHT22;14177;51.520;6.764;2022-12-18T05:03:24;-8.50;99.90
26503;DHT22;14177;51.520;6.764;2022-12-18T05:05:51;-8.60;99.90
26503;DHT22;14177;51.520;6.764;2022-12-18T05:08:18;-8.60;99.90
26503;DHT22;14177;51.520;6.764;2022-12-18T05:10:45;-8.60;99.90
26503;DHT22;14177;51.520;6.764;2022-12-18T05:13:12;-8.60;99.90
26503;DHT22;14177;51.520;6.764;2022-12-18T05:15:39;-8.60;99.90
26503;DHT22;14177;51.520;6.764;2022-12-18T05:18:06;-8.50;99.90
26503;DHT22;14177;51.520;6.764;2022-12-18T05:20:33;-8.60;99.90
26503;DHT22;14177;51.520;6.764;2022-12-18T05:23:00;-8.60;99.90
26503;DHT22;14177;51.520;6.764;2022-12-18T05:25:27;-8.60;99.90
26503;DHT22;14177;51.520;6.764;2022-12-18T05:27:53;-8.60;99.90
26503;DHT22;14177;51.520;6.764;2022-12-18T05:30:20;-8.60;99.90
26503;DHT22;14177;51.520;6.764;2022-12-18T05:32:47;-8.60;99.90
26503;DHT22;14177;51.520;6.764;2022-12-18T05:35:14;-8.60;99.90
26503;DHT22;14177;51.520;6.764;2022-12-18T05:37:41;-8.60;99.90
26503;DHT22;14177;51.520;6.764;2022-12-18T05:40:09;-8.60;99.90
26503;DHT22;14177;51.520;6.764;2022-12-18T05:42:36;-8.60;99.90
26503;DHT22;14177;51.520;6.764;2022-12-18T05:45:04;-8.60;99.90
26503;DHT22;14177;51.520;6.764;2022-12-18T05:47:32;-8.60;99.90
26503;DHT22;14177;51.520;6.764;2022-12-18T05:49:58;-8.60;99.90
26503;DHT22;14177;51.520;6.764;2022-12-18T05:52:25;-8.60;99.90
26503;DHT22;14177;51.520;6.764;2022-12-18T05:54:52;-8.70;99.90
26503;DHT22;14177;51.520;6.764;2022-12-18T05:57:19;-8.60;99.90
26503;DHT22;14177;51.520;6.764;2022-12-18T05:59:46;-8.60;99.90
26503;DHT22;14177;51.520;6.764;2022-12-18T06:02:13;-8.60;99.90
26503;DHT22;14177;51.520;6.764;2022-12-18T06:04:40;-8.60;99.90
26503;DHT22;14177;51.520;6.764;2022-12-18T06:07:07;-8.60;99.90
26503;DHT22;14177;51.520;6.764;2022-12-18T06:09:33;-8.60;99.90
26503;DHT22;14177;51.520;6.764;2022-12-18T06:12:00;-8.60;99.90
26503;DHT22;14177;51.520;6.764;2022-12-18T06:14:27;-8.60;99.90
26503;DHT22;14177;51.520;6.764;2022-12-18T06:16:54;-8.60;99.90
26503;DHT22;14177;51.520;6.764;2022-12-18T06:19:21;-8.60;99.90
26503;DHT22;14177;51.520;6.764;2022-12-18T06:21:48;-8.60;99.90
26503;DHT22;14177;51.520;6.764;2022-12-18T06:24:15;-8.60;99.90
26503;DHT22;14177;51.520;6.764;2022-12-18T06:26:42;-8.60;99.90
26503;DHT22;14177;51.520;6.764;2022-12-18T06:29:09;-8.60;99.90
26503;DHT22;14177;51.520;6.764;2022-12-18T06:31:36;-8.60;99.90
26503;DHT22;14177;51.520;6.764;2022-12-18T06:34:03;-8.60;99.90
26503;DHT22;14177;51.520;6.764;2022-12-18T06:36:30;-8.60;99.90
26503;DHT22;14177;51.520;6.764;2022-12-18T06:38:58;-8.60;99.90
26503;DHT22;14177;51.520;6.764;2022-12-18T06:41:25;-8.60;99.90
26503;DHT22;14177;51.520;6.764;2022-12-18T06:43:52;-8.60;99.90
26503;DHT22;14177;51.520;6.764;2022-12-18T06:46:25;-8.70;99.90
26503;DHT22;14177;51.520;6.764;2022-12-18T06:48:51;-8.70;99.90
26503;DHT22;14177;51.520;6.764;2022-12-18T06:51:19;-8.70;99.90
26503;DHT22;14177;51.520;6.764;2022-12-18T06:53:48;-8.70;99.90
26503;DHT22;14177;51.520;6.764;2022-12-18T06:56:16;-8.70;99.90
26503;DHT22;14177;51.520;6.764;2022-12-18T06:58:43;-8.70;99.90
26503;DHT22;14177;51.520;6.764;2022-12-18T07:01:11;-8.70;99.90
26503;DHT22;14177;51.520;6.764;2022-12-18T07:03:40;-8.70;99.90
26503;DHT22;14177;51.520;6.764;2022-12-18T07:06:15;-8.70;99.90
26503;DHT22;14177;51.520;6.764;2022-12-18T07:08:43;-8.70;99.90
26503;DHT22;14177;51.520;6.764;2022-12-18T07:11:10;-8.70;99.90
26503;DHT22;14177;51.520;6.764;2022-12-18T07:13:38;-8.70;99.90
26503;DHT22;14177;51.520;6.764;2022-12-18T07:16:13;-8.70;99.90
26503;DHT22;14177;51.520;6.764;2022-12-18T07:18:50;-8.70;99.90
26503;DHT22;14177;51.520;6.764;2022-12-18T07:21:18;-8.80;99.90
26503;DHT22;14177;51.520;6.764;2022-12-18T07:23:47;-8.70;99.90
26503;DHT22;14177;51.520;6.764;2022-12-18T07:26:16;-8.70;99.90
26503;DHT22;14177;51.520;6.764;2022-12-18T07:28:45;-8.70;99.90
26503;DHT22;14177;51.520;6.764;2022-12-18T07:31:13;-8.70;99.90
26503;DHT22;14177;51.520;6.764;2022-12-18T07:33:43;-8.60;99.90
26503;DHT22;14177;51.520;6.764;2022-12-18T07:36:13;-8.60;99.90
26503;DHT22;14177;51.520;6.764;2022-12-18T07:38:41;-8.60;99.90
26503;DHT22;14177;51.520;6.764;2022-12-18T07:41:09;-8.60;99.90
26503;DHT22;14177;51.520;6.764;2022-12-18T07:43:37;-8.60;99.90
26503;DHT22;14177;51.520;6.764;2022-12-18T07:46:08;-8.60;99.90
26503;DHT22;14177;51.520;6.764;2022-12-18T07:48:35;-8.60;99.90
26503;DHT22;14177;51.520;6.764;2022-12-18T07:51:03;-8.50;99.90
26503;DHT22;14177;51.520;6.764;2022-12-18T07:53:32;-8.50;99.90
26503;DHT22;14177;51.520;6.764;2022-12-18T07:56:01;-8.50;99.90
26503;DHT22;14177;51.520;6.764;2022-12-18T07:58:51;-8.50;99.90
26503;DHT22;14177;51.520;6.764;2022-12-18T08:01:18;-8.40;99.90
26503;DHT22;14177;51.520;6.764;2022-12-18T08:03:46;-8.40;99.90
26503;DHT22;14177;51.520;6.764;2022-12-18T08:06:14;-8.40;99.90
26503;DHT22;14177;51.520;6.764;2022-12-18T08:08:41;-8.40;99.90
26503;DHT22;14177;51.520;6.764;2022-12-18T08:11:09;-8.30;99.90
26503;DHT22;14177;51.520;6.764;2022-12-18T08:13:36;-8.30;99.90
26503;DHT22;14177;51.520;6.764;2022-12-18T08:16:05;-8.20;99.90
26503;DHT22;14177;51.520;6.764;2022-12-18T08:18:34;-8.20;99.90
26503;DHT22;14177;51.520;6.764;2022-12-18T08:21:09;-8.10;99.90
26503;DHT22;14177;51.520;6.764;2022-12-18T08:23:36;-8.00;99.90
26503;DHT22;14177;51.520;6.764;2022-12-18T08:26:09;-8.00;99.90
26503;DHT22;14177;51.520;6.764;2022-12-18T08:28:38;-7.90;99.90
26503;DHT22;14177;51.520;6.764;2022-12-18T08:31:05;-7.80;99.90
26503;DHT22;14177;51.520;6.764;2022-12-18T08:33:33;-7.70;99.90
26503;DHT22;14177;51.520;6.764;2022-12-18T08:36:01;-7.50;99.90
26503;DHT22;14177;51.520;6.764;2022-12-18T08:38:30;-7.40;99.90
26503;DHT22;14177;51.520;6.764;2022-12-18T08:40:59;-7.40;99.90
26503;DHT22;14177;51.520;6.764;2022-12-18T08:43:27;-7.20;99.90
26503;DHT22;14177;51.520;6.764;2022-12-18T08:46:13;-7.10;99.90
26503;DHT22;14177;51.520;6.764;2022-12-18T08:48:40;-7.00;99.90
26503;DHT22;14177;51.520;6.764;2022-12-18T08:51:08;-6.90;99.90
26503;DHT22;14177;51.520;6.764;2022-12-18T08:53:36;-6.70;99.90
26503;DHT22;14177;51.520;6.764;2022-12-18T08:56:04;-6.60;99.90
26503;DHT22;14177;51.520;6.764;2022-12-18T08:58:31;-6.40;99.90
26503;DHT22;14177;51.520;6.764;2022-12-18T09:00:59;-6.20;99.90
26503;DHT22;14177;51.520;6.764;2022-12-18T09:03:28;-6.10;99.90
26503;DHT22;14177;51.520;6.764;2022-12-18T09:05:57;-5.90;99.90
26503;DHT22;14177;51.520;6.764;2022-12-18T09:08:24;-5.70;99.90
26503;DHT22;14177;51.520;6.764;2022-12-18T09:10:52;-5.50;99.90
26503;DHT22;14177;51.520;6.764;2022-12-18T09:13:19;-5.40;99.90
26503;DHT22;14177;51.520;6.764;2022-12-18T09:15:48;-5.20;99.90
26503;DHT22;14177;51.520;6.764;2022-12-18T09:18:16;-5.00;99.90
26503;DHT22;14177;51.520;6.764;2022-12-18T09:20:45;-4.80;99.90
26503;DHT22;14177;51.520;6.764;2022-12-18T09:23:12;-4.40;99.90
26503;DHT22;14177;51.520;6.764;2022-12-18T09:25:39;-4.00;99.90
26503;DHT22;14177;51.520;6.764;2022-12-18T09:28:14;-3.40;99.90
26503;DHT22;14177;51.520;6.764;2022-12-18T09:30:46;-2.80;99.90
26503;DHT22;14177;51.520;6.764;2022-12-18T09:33:15;-1.90;99.90
26503;DHT22;14177;51.520;6.764;2022-12-18T09:35:43;-1.30;99.90
26503;DHT22;14177;51.520;6.764;2022-12-18T09:38:12;-0.80;99.90
26503;DHT22;14177;51.520;6.764;2022-12-18T09:40:45;-0.50;99.90
26503;DHT22;14177;51.520;6.764;2022-12-18T09:46:23;0.00;99.90
26503;DHT22;14177;51.520;6.764;2022-12-18T09:48:56;0.10;99.90
26503;DHT22;14177;51.520;6.764;2022-12-18T09:51:31;0.10;99.90
26503;DHT22;14177;51.520;6.764;2022-12-18T09:54:03;0.10;99.90
26503;DHT22;14177;51.520;6.764;2022-12-18T09:56:40;0.00;99.90
26503;DHT22;14177;51.520;6.764;2022-12-18T09:59:46;-0.20;99.90
26503;DHT22;14177;51.520;6.764;2022-12-18T10:02:13;-0.30;99.90
26503;DHT22;14177;51.520;6.764;2022-12-18T10:04:58;-0.40;99.90
26503;DHT22;14177;51.520;6.764;2022-12-18T10:10:31;-0.70;99.90
26503;DHT22;14177;51.520;6.764;2022-12-18T10:13:10;-0.70;99.90
26503;DHT22;14177;51.520;6.764;2022-12-18T10:15:54;-0.70;99.90
26503;DHT22;14177;51.520;6.764;2022-12-18T10:21:05;-0.60;99.90
26503;DHT22;14177;51.520;6.764;2022-12-18T10:23:40;-0.50;99.90
26503;DHT22;14177;51.520;6.764;2022-12-18T10:26:23;-0.50;99.90
26503;DHT22;14177;51.520;6.764;2022-12-18T10:28:51;-0.40;99.90
26503;DHT22;14177;51.520;6.764;2022-12-18T10:31:22;-0.30;99.90
26503;DHT22;14177;51.520;6.764;2022-12-18T10:33:50;-0.30;99.90
26503;DHT22;14177;51.520;6.764;2022-12-18T10:36:22;-0.20;99.90
26503;DHT22;14177;51.520;6.764;2022-12-18T10:38:51;0.00;99.90
26503;DHT22;14177;51.520;6.764;2022-12-18T10:43:47;0.20;99.90
26503;DHT22;14177;51.520;6.764;2022-12-18T10:46:15;0.30;99.90
26503;DHT22;14177;51.520;6.764;2022-12-18T10:53:59;0.50;99.90
26503;DHT22;14177;51.520;6.764;2022-12-18T10:56:30;0.60;99.90
26503;DHT22;14177;51.520;6.764;2022-12-18T10:59:01;0.60;99.90
26503;DHT22;14177;51.520;6.764;2022-12-18T11:04:20;0.70;99.90
26503;DHT22;14177;51.520;6.764;2022-12-18T11:07:07;0.70;99.90
26503;DHT22;14177;51.520;6.764;2022-12-18T11:09:38;0.70;99.90
26503;DHT22;14177;51.520;6.764;2022-12-18T11:12:16;0.70;99.90
26503;DHT22;14177;51.520;6.764;2022-12-18T11:14:49;0.70;99.90
26503;DHT22;14177;51.520;6.764;2022-12-18T11:17:19;0.70;99.90
26503;DHT22;14177;51.520;6.764;2022-12-18T11:19:53;0.70;99.90
26503;DHT22;14177;51.520;6.764;2022-12-18T11:25:04;0.90;99.90
26503;DHT22;14177;51.520;6.764;2022-12-18T11:28:02;1.00;99.90
26503;DHT22;14177;51.520;6.764;2022-12-18T11:30:49;1.20;99.90
26503;DHT22;14177;51.520;6.764;2022-12-18T11:33:34;1.30;99.90
26503;DHT22;14177;51.520;6.764;2022-12-18T11:36:04;1.40;99.90
26503;DHT22;14177;51.520;6.764;2022-12-18T11:38:39;1.50;99.90
26503;DHT22;14177;51.520;6.764;2022-12-18T11:43:52;1.80;99.00
26503;DHT22;14177;51.520;6.764;2022-12-18T11:46:39;1.80;98.60
26503;DHT22;14177;51.520;6.764;2022-12-18T11:49:13;1.80;98.20
26503;DHT22;14177;51.520;6.764;2022-12-18T11:51:51;1.90;97.80
26503;DHT22;14177;51.520;6.764;2022-12-18T11:54:26;1.90;97.60
26503;DHT22;14177;51.520;6.764;2022-12-18T11:59:36;1.90;97.00
26503;DHT22;14177;51.520;6.764;2022-12-18T12:07:43;2.10;95.50
26503;DHT22;14177;51.520;6.764;2022-12-18T12:10:32;2.20;94.70
26503;DHT22;14177;51.520;6.764;2022-12-18T12:16:06;2.30;94.80
26503;DHT22;14177;51.520;6.764;2022-12-18T12:19:04;2.30;94.60
26503;DHT22;14177;51.520;6.764;2022-12-18T12:24:51;2.30;94.10
26503;DHT22;14177;51.520;6.764;2022-12-18T12:27:40;2.40;94.40
26503;DHT22;14177;51.520;6.764;2022-12-18T12:33:36;2.40;94.60
26503;DHT22;14177;51.520;6.764;2022-12-18T12:39:21;2.40;94.20
26503;DHT22;14177;51.520;6.764;2022-12-18T12:41:53;2.40;94.10
26503;DHT22;14177;51.520;6.764;2022-12-18T12:44:44;2.40;93.90
26503;DHT22;14177;51.520;6.764;2022-12-18T12:47:27;2.40;94.20
26503;DHT22;14177;51.520;6.764;2022-12-18T12:49:59;2.30;94.10
26503;DHT22;14177;51.520;6.764;2022-12-18T12:52:39;2.30;94.00
26503;DHT22;14177;51.520;6.764;2022-12-18T12:55:19;2.30;94.00
26503;DHT22;14177;51.520;6.764;2022-12-18T13:03:33;2.30;93.70
26503;DHT22;14177;51.520;6.764;2022-12-18T13:06:07;2.30;93.20
26503;DHT22;14177;51.520;6.764;2022-12-18T13:08:57;2.30;93.30
26503;DHT22;14177;51.520;6.764;2022-12-18T13:11:31;2.30;93.20
26503;DHT22;14177;51.520;6.764;2022-12-18T13:22:46;2.20;93.10
26503;DHT22;14177;51.520;6.764;2022-12-18T13:28:03;2.20;93.10
26503;DHT22;14177;51.520;6.764;2022-12-18T13:45:47;2.20;92.30
26503;DHT22;14177;51.520;6.764;2022-12-18T13:48:25;2.20;92.20
26503;DHT22;14177;51.520;6.764;2022-12-18T13:51:06;2.20;92.20
26503;DHT22;14177;51.520;6.764;2022-12-18T13:53:42;2.10;92.20
26503;DHT22;14177;51.520;6.764;2022-12-18T13:56:20;2.10;92.40
26503;DHT22;14177;51.520;6.764;2022-12-18T13:59:03;2.10;92.50
26503;DHT22;14177;51.520;6.764;2022-12-18T14:01:55;2.10;92.10
26503;DHT22;14177;51.520;6.764;2022-12-18T14:04:30;2.10;92.20
26503;DHT22;14177;51.520;6.764;2022-12-18T14:07:03;2.10;92.30
26503;DHT22;14177;51.520;6.764;2022-12-18T14:09:43;2.10;92.20
26503;DHT22;14177;51.520;6.764;2022-12-18T14:12:14;2.00;92.50
26503;DHT22;14177;51.520;6.764;2022-12-18T14:15:03;2.00;92.60
26503;DHT22;14177;51.520;6.764;2022-12-18T14:17:32;2.00;92.70
26503;DHT22;14177;51.520;6.764;2022-12-18T14:20:13;1.90;92.80
26503;DHT22;14177;51.520;6.764;2022-12-18T14:22:45;1.90;92.90
26503;DHT22;14177;51.520;6.764;2022-12-18T14:25:23;1.90;92.90
26503;DHT22;14177;51.520;6.764;2022-12-18T14:27:53;1.90;92.80
26503;DHT22;14177;51.520;6.764;2022-12-18T14:30:30;1.90;93.10
26503;DHT22;14177;51.520;6.764;2022-12-18T14:33:05;1.80;93.00
26503;DHT22;14177;51.520;6.764;2022-12-18T14:35:36;1.80;93.00
26503;DHT22;14177;51.520;6.764;2022-12-18T14:38:16;1.80;93.10
26503;DHT22;14177;51.520;6.764;2022-12-18T14:40:45;1.80;92.90
26503;DHT22;14177;51.520;6.764;2022-12-18T14:43:12;1.70;93.10
26503;DHT22;14177;51.520;6.764;2022-12-18T14:58:44;1.60;93.80
26503;DHT22;14177;51.520;6.764;2022-12-18T15:01:21;1.60;93.30
26503;DHT22;14177;51.520;6.764;2022-12-18T15:03:51;1.60;93.60
26503;DHT22;14177;51.520;6.764;2022-12-18T15:06:24;1.60;93.50
26503;DHT22;14177;51.520;6.764;2022-12-18T15:08:53;1.60;93.30
26503;DHT22;14177;51.520;6.764;2022-12-18T15:17:02;1.50;93.20
26503;DHT22;14177;51.520;6.764;2022-12-18T15:19:35;1.50;93.40
26503;DHT22;14177;51.520;6.764;2022-12-18T15:22:22;1.50;93.30
26503;DHT22;14177;51.520;6.764;2022-12-18T15:24:55;1.60;93.30
26503;DHT22;14177;51.520;6.764;2022-12-18T15:27:30;1.60;93.20
26503;DHT22;14177;51.520;6.764;2022-12-18T15:30:00;1.50;93.30
26503;DHT22;14177;51.520;6.764;2022-12-18T15:32:29;1.50;93.40
26503;DHT22;14177;51.520;6.764;2022-12-18T15:37:37;1.50;93.60
26503;DHT22;14177;51.520;6.764;2022-12-18T15:40:06;1.50;93.70
26503;DHT22;14177;51.520;6.764;2022-12-18T15:42:34;1.50;93.80
26503;DHT22;14177;51.520;6.764;2022-12-18T15:45:20;1.50;93.80
26503;DHT22;14177;51.520;6.764;2022-12-18T15:47:49;1.50;93.90
26503;DHT22;14177;51.520;6.764;2022-12-18T15:50:16;1.50;93.90
26503;DHT22;14177;51.520;6.764;2022-12-18T15:52:44;1.40;94.10
26503;DHT22;14177;51.520;6.764;2022-12-18T15:55:13;1.40;94.10
26503;DHT22;14177;51.520;6.764;2022-12-18T15:58:02;1.40;94.00
26503;DHT22;14177;51.520;6.764;2022-12-18T16:00:29;1.40;94.20
26503;DHT22;14177;51.520;6.764;2022-12-18T16:02:57;1.40;94.30
26503;DHT22;14177;51.520;6.764;2022-12-18T16:05:24;1.30;94.40
26503;DHT22;14177;51.520;6.764;2022-12-18T16:07:52;1.30;94.60
26503;DHT22;14177;51.520;6.764;2022-12-18T16:10:19;1.30;94.80
26503;DHT22;14177;51.520;6.764;2022-12-18T16:12:47;1.20;94.80
26503;DHT22;14177;51.520;6.764;2022-12-18T16:15:14;1.20;95.00
26503;DHT22;14177;51.520;6.764;2022-12-18T16:17:49;1.20;95.00
26503;DHT22;14177;51.520;6.764;2022-12-18T16:20:17;1.30;94.90
26503;DHT22;14177;51.520;6.764;2022-12-18T16:22:47;1.30;94.90
26503;DHT22;14177;51.520;6.764;2022-12-18T16:27:46;1.40;94.60
26503;DHT22;14177;51.520;6.764;2022-12-18T16:30:14;1.40;94.70
26503;DHT22;14177;51.520;6.764;2022-12-18T16:32:42;1.30;94.80
26503;DHT22;14177;51.520;6.764;2022-12-18T16:35:11;1.30;95.00
26503;DHT22;14177;51.520;6.764;2022-12-18T16:37:39;1.30;95.20
26503;DHT22;14177;51.520;6.764;2022-12-18T16:40:08;1.30;95.30
26503;DHT22;14177;51.520;6.764;2022-12-18T16:42:37;1.30;95.30
26503;DHT22;14177;51.520;6.764;2022-12-18T16:45:06;1.30;95.50
26503;DHT22;14177;51.520;6.764;2022-12-18T16:47:36;1.30;95.60
26503;DHT22;14177;51.520;6.764;2022-12-18T16:50:03;1.30;95.60
26503;DHT22;14177;51.520;6.764;2022-12-18T16:52:31;1.30;95.80
26503;DHT22;14177;51.520;6.764;2022-12-18T16:54:58;1.20;95.90
26503;DHT22;14177;51.520;6.764;2022-12-18T16:57:25;1.20;96.00
26503;DHT22;14177;51.520;6.764;2022-12-18T16:59:52;1.20;96.20
26503;DHT22;14177;51.520;6.764;2022-12-18T17:02:20;1.20;96.20
26503;DHT22;14177;51.520;6.764;2022-12-18T17:04:52;1.20;96.20
26503;DHT22;14177;51.520;6.764;2022-12-18T17:07:20;1.20;96.50
26503;DHT22;14177;51.520;6.764;2022-12-18T17:09:47;1.20;96.60
26503;DHT22;14177;51.520;6.764;2022-12-18T17:12:16;1.20;96.60
26503;DHT22;14177;51.520;6.764;2022-12-18T17:14:43;1.20;96.80
26503;DHT22;14177;51.520;6.764;2022-12-18T17:17:10;1.20;96.80
26503;DHT22;14177;51.520;6.764;2022-12-18T17:19:52;1.20;96.90
26503;DHT22;14177;51.520;6.764;2022-12-18T17:22:20;1.20;97.00
26503;DHT22;14177;51.520;6.764;2022-12-18T17:24:48;1.20;97.20
26503;DHT22;14177;51.520;6.764;2022-12-18T17:27:15;1.20;97.30
26503;DHT22;14177;51.520;6.764;2022-12-18T17:29:43;1.10;97.50
26503;DHT22;14177;51.520;6.764;2022-12-18T17:32:14;1.10;97.70
26503;DHT22;14177;51.520;6.764;2022-12-18T17:34:41;1.20;97.90
26503;DHT22;14177;51.520;6.764;2022-12-18T17:37:08;1.10;97.90
26503;DHT22;14177;51.520;6.764;2022-12-18T17:39:35;1.20;98.00
26503;DHT22;14177;51.520;6.764;2022-12-18T17:42:02;1.20;98.00
26503;DHT22;14177;51.520;6.764;2022-12-18T17:44:31;1.10;98.20
26503;DHT22;14177;51.520;6.764;2022-12-18T17:46:59;1.10;98.30
26503;DHT22;14177;51.520;6.764;2022-12-18T17:49:26;1.10;98.40
26503;DHT22;14177;51.520;6.764;2022-12-18T17:51:54;1.10;98.60
26503;DHT22;14177;51.520;6.764;2022-12-18T17:54:20;1.10;98.70
26503;DHT22;14177;51.520;6.764;2022-12-18T17:56:47;1.10;98.80
26503;DHT22;14177;51.520;6.764;2022-12-18T17:59:15;1.10;98.80
26503;DHT22;14177;51.520;6.764;2022-12-18T18:01:42;1.10;98.90
26503;DHT22;14177;51.520;6.764;2022-12-18T18:04:11;1.10;98.80
26503;DHT22;14177;51.520;6.764;2022-12-18T18:06:40;1.10;98.70
26503;DHT22;14177;51.520;6.764;2022-12-18T18:09:07;1.10;98.90
26503;DHT22;14177;51.520;6.764;2022-12-18T18:11:46;1.10;99.20
26503;DHT22;14177;51.520;6.764;2022-12-18T18:14:32;1.00;99.00